createdAt,value
2023-04-25T00:01:49.605Z,13.27
2023-04-25T00:04:16.962Z,13.33
2023-04-25T00:06:43.684Z,13.23
2023-04-25T00:09:11.132Z,13.14
2023-04-25T00:11:38.660Z,13.08
2023-04-25T00:14:05.805Z,13.13
2023-04-25T00:16:34.834Z,13.17
2023-04-25T00:19:02.480Z,13.23
2023-04-25T00:21:29.286Z,13.22
2023-04-25T00:23:56.702Z,13.13
2023-04-25T00:26:23.144Z,13.16
2023-04-25T00:28:49.648Z,13.06
2023-04-25T00:31:16.170Z,12.99
2023-04-25T00:33:42.647Z,13.06
2023-04-25T00:36:09.645Z,13.15
2023-04-25T00:38:36.709Z,13.12
2023-04-25T00:41:03.140Z,13.08
2023-04-25T00:43:33.259Z,13.02
2023-04-25T00:46:01.634Z,13.03
2023-04-25T00:48:28.379Z,12.95
2023-04-25T00:50:57.545Z,12.98
2023-04-25T00:53:25.590Z,13.02
2023-04-25T00:55:52.986Z,12.98
2023-04-25T00:58:20.867Z,13.01
2023-04-25T01:00:48.721Z,12.93
2023-04-25T01:03:21.310Z,12.82
2023-04-25T01:05:49.007Z,12.74
2023-04-25T01:08:15.786Z,12.75
2023-04-25T01:10:42.197Z,12.71
2023-04-25T01:13:09.091Z,12.67
2023-04-25T01:15:36.887Z,12.73
2023-04-25T01:18:05.152Z,12.73
2023-04-25T01:20:33.448Z,12.62
2023-04-25T01:23:01.251Z,12.64
2023-04-25T01:25:27.818Z,12.54
2023-04-25T01:27:54.419Z,12.54
2023-04-25T01:30:20.978Z,12.56
2023-04-25T01:32:49.189Z,12.44
2023-04-25T01:35:15.909Z,12.38
2023-04-25T01:37:43.920Z,12.40
2023-04-25T01:40:12.114Z,12.41
2023-04-25T01:42:41.655Z,12.46
2023-04-25T01:45:09.449Z,12.41
2023-04-25T01:47:36.259Z,12.42
2023-04-25T01:50:04.126Z,12.32
2023-04-25T01:52:30.708Z,12.31
2023-04-25T01:55:00.536Z,12.25
2023-04-25T01:57:27.018Z,12.28
2023-04-25T01:59:59.971Z,12.21
2023-04-25T02:02:27.213Z,12.14
2023-04-25T02:04:55.086Z,12.25
2023-04-25T02:07:21.756Z,12.47
2023-04-25T02:09:48.260Z,12.52
2023-04-25T02:12:14.755Z,12.64
2023-04-25T02:14:41.153Z,12.74
2023-04-25T02:17:08.121Z,12.76
2023-04-25T02:19:34.770Z,12.72
2023-04-25T02:22:01.659Z,12.64
2023-04-25T02:24:28.934Z,12.66
2023-04-25T02:26:56.870Z,12.53
2023-04-25T02:29:24.049Z,12.49
2023-04-25T02:31:50.812Z,12.59
2023-04-25T02:34:17.353Z,12.61
2023-04-25T02:36:43.923Z,12.68
2023-04-25T02:40:12.893Z,12.63
2023-04-25T02:42:39.343Z,12.61
2023-04-25T02:45:06.195Z,12.56
2023-04-25T02:47:32.803Z,12.62
2023-04-25T02:49:59.300Z,12.63
2023-04-25T02:52:26.312Z,12.62
2023-04-25T02:54:52.741Z,12.54
2023-04-25T02:57:19.310Z,12.51
2023-04-25T02:59:45.758Z,12.57
2023-04-25T03:02:12.256Z,12.54
2023-04-25T03:04:38.746Z,12.55
2023-04-25T03:07:05.309Z,12.49
2023-04-25T03:09:31.753Z,12.31
2023-04-25T03:11:58.260Z,12.37
2023-04-25T03:14:24.649Z,12.34
2023-04-25T03:16:51.084Z,12.24
2023-04-25T03:19:17.934Z,12.28
2023-04-25T03:21:44.722Z,12.35
2023-04-25T03:24:12.100Z,12.47
2023-04-25T03:26:38.557Z,12.53
2023-04-25T03:29:04.979Z,12.51
2023-04-25T03:31:31.911Z,12.27
2023-04-25T03:33:58.518Z,12.04
2023-04-25T03:36:24.922Z,11.89
2023-04-25T03:38:51.759Z,11.73
2023-04-25T03:41:18.186Z,11.63
2023-04-25T03:43:44.577Z,11.58
2023-04-25T03:46:11.075Z,11.60
2023-04-25T03:48:37.550Z,11.56
2023-04-25T03:51:04.206Z,11.60
2023-04-25T03:53:30.653Z,11.81
2023-04-25T03:55:57.018Z,11.72
2023-04-25T03:58:25.260Z,11.74
2023-04-25T04:00:51.682Z,11.70
2023-04-25T04:03:18.343Z,11.70
2023-04-25T04:05:46.116Z,11.69
2023-04-25T04:08:12.885Z,11.67
2023-04-25T04:10:39.312Z,11.52
2023-04-25T04:13:05.784Z,11.39
2023-04-25T04:15:33.872Z,11.46
2023-04-25T04:18:03.809Z,11.43
2023-04-25T04:20:31.457Z,11.49
2023-04-25T04:22:58.328Z,11.48
2023-04-25T04:25:25.580Z,11.48
2023-04-25T04:27:55.599Z,11.53
2023-04-25T04:30:25.117Z,11.63
2023-04-25T04:32:52.708Z,11.82
2023-04-25T04:35:19.291Z,11.93
2023-04-25T04:37:46.681Z,11.92
2023-04-25T04:40:16.203Z,11.94
2023-04-25T04:42:48.991Z,11.83
2023-04-25T04:45:15.722Z,11.70
2023-04-25T04:47:42.241Z,11.63
2023-04-25T04:50:10.306Z,11.72
2023-04-25T04:52:37.583Z,11.69
2023-04-25T04:55:05.425Z,11.67
2023-04-25T04:57:33.710Z,11.64
2023-04-25T05:00:00.570Z,11.67
2023-04-25T05:02:27.362Z,11.78
2023-04-25T05:04:53.991Z,11.75
2023-04-25T05:07:20.554Z,11.78
2023-04-25T05:09:46.935Z,11.75
2023-04-25T05:12:13.623Z,11.61
2023-04-25T05:14:40.023Z,11.60
2023-04-25T05:17:09.275Z,11.72
2023-04-25T05:19:35.757Z,11.90
2023-04-25T05:22:03.204Z,11.96
2023-04-25T05:24:29.713Z,11.99
2023-04-25T05:26:56.097Z,11.97
2023-04-25T05:29:22.530Z,12.06
2023-04-25T05:31:49.224Z,12.13
2023-04-25T05:34:16.222Z,12.28
2023-04-25T05:36:42.683Z,12.55
2023-04-25T05:39:09.838Z,12.69
2023-04-25T05:41:36.222Z,12.74
2023-04-25T05:44:03.301Z,12.70
2023-04-25T05:46:29.772Z,12.64
2023-04-25T05:48:56.233Z,12.60
2023-04-25T05:51:22.645Z,12.63
2023-04-25T05:53:49.237Z,12.65
2023-04-25T05:56:15.968Z,12.71
2023-04-25T05:58:42.447Z,12.81
2023-04-25T06:01:09.887Z,12.80
2023-04-25T06:03:36.657Z,12.84
2023-04-25T06:06:03.527Z,12.71
2023-04-25T06:08:30.082Z,12.76
2023-04-25T06:10:56.503Z,12.93
2023-04-25T06:13:22.967Z,12.84
2023-04-25T06:15:49.408Z,12.86
2023-04-25T06:18:15.880Z,12.90
2023-04-25T06:20:42.282Z,13.02
2023-04-25T06:23:08.673Z,13.13
2023-04-25T06:25:35.260Z,13.17
2023-04-25T06:28:01.794Z,13.27
2023-04-25T06:30:28.346Z,13.27
2023-04-25T06:32:54.959Z,13.28
2023-04-25T06:35:21.450Z,13.39
2023-04-25T06:37:48.278Z,13.47
2023-04-25T06:40:14.937Z,13.47
2023-04-25T06:42:41.365Z,13.50
2023-04-25T06:45:08.426Z,13.47
2023-04-25T06:47:34.955Z,13.56
2023-04-25T06:50:01.676Z,13.58
2023-04-25T06:52:28.160Z,13.70
2023-04-25T06:54:54.641Z,13.81
2023-04-25T06:57:21.019Z,13.72
2023-04-25T06:59:47.454Z,13.81
2023-04-25T07:02:13.999Z,13.71
2023-04-25T07:04:40.656Z,13.69
2023-04-25T07:07:07.226Z,13.81
2023-04-25T07:09:34.899Z,13.88
2023-04-25T07:12:02.575Z,13.99
2023-04-25T07:14:29.440Z,13.91
2023-04-25T07:16:57.853Z,14.03
2023-04-25T07:19:27.426Z,14.05
2023-04-25T07:21:54.226Z,14.20
2023-04-25T07:24:20.781Z,14.32
2023-04-25T07:26:47.344Z,14.36
2023-04-25T07:29:13.786Z,14.39
2023-04-25T07:31:40.465Z,14.54
2023-04-25T07:34:07.011Z,14.40
2023-04-25T07:36:33.456Z,14.32
2023-04-25T07:39:02.644Z,14.34
2023-04-25T07:41:29.147Z,14.43
2023-04-25T07:43:55.935Z,14.62
2023-04-25T07:46:22.457Z,14.69
2023-04-25T07:48:49.330Z,14.71
2023-04-25T07:51:16.186Z,14.58
2023-04-25T07:53:42.593Z,14.58
2023-04-25T07:56:09.016Z,14.66
2023-04-25T07:58:35.865Z,14.60
2023-04-25T08:01:02.480Z,14.55
2023-04-25T08:03:29.139Z,14.57
2023-04-25T08:05:56.621Z,14.61
2023-04-25T08:08:29.786Z,14.60
2023-04-25T08:10:56.483Z,14.69
2023-04-25T08:13:22.916Z,14.78
2023-04-25T08:15:49.492Z,14.88
2023-04-25T08:18:17.539Z,14.96
2023-04-25T08:20:44.337Z,14.91
2023-04-25T08:23:11.779Z,14.93
2023-04-25T08:25:38.224Z,15.09
2023-04-25T08:28:04.773Z,15.31
2023-04-25T08:30:31.293Z,15.33
2023-04-25T08:32:57.823Z,15.30
2023-04-25T08:35:24.303Z,15.34
2023-04-25T08:37:50.805Z,15.30
2023-04-25T08:40:17.276Z,15.38
2023-04-25T08:42:43.888Z,15.56
2023-04-25T08:45:10.851Z,15.60
2023-04-25T08:47:38.985Z,15.67
2023-04-25T08:50:06.554Z,15.62
2023-04-25T08:52:39.971Z,15.53
2023-04-25T08:55:10.004Z,15.54
2023-04-25T08:57:37.824Z,15.59
2023-04-25T09:00:05.273Z,15.68
2023-04-25T09:02:32.163Z,15.69
2023-04-25T09:04:58.735Z,15.61
2023-04-25T09:07:26.621Z,15.73
2023-04-25T09:09:53.249Z,15.69
2023-04-25T09:12:20.723Z,15.70
2023-04-25T09:15:11.136Z,15.74
2023-04-25T09:17:41.374Z,15.85
2023-04-25T09:20:13.269Z,16.00
2023-04-25T09:22:40.116Z,15.91
2023-04-25T09:25:15.429Z,16.02
2023-04-25T09:27:53.048Z,16.16
2023-04-25T09:30:20.112Z,16.55
2023-04-25T09:32:46.634Z,16.48
2023-04-25T09:35:25.351Z,16.80
2023-04-25T09:37:51.932Z,16.97
2023-04-25T09:40:19.526Z,17.20
2023-04-25T09:42:46.270Z,17.67
2023-04-25T09:45:16.094Z,17.93
2023-04-25T09:47:44.985Z,17.74
2023-04-25T09:50:16.923Z,17.41
2023-04-25T09:52:44.139Z,17.08
2023-04-25T09:55:10.690Z,17.11
2023-04-25T09:57:40.682Z,17.86
2023-04-25T10:00:11.978Z,18.05
2023-04-25T10:02:42.594Z,17.66
2023-04-25T10:05:09.577Z,17.34
2023-04-25T10:07:39.109Z,17.42
2023-04-25T10:10:07.267Z,17.38
2023-04-25T10:12:34.591Z,17.35
2023-04-25T10:15:02.369Z,17.64
2023-04-25T10:17:29.212Z,17.82
2023-04-25T10:19:56.260Z,17.90
2023-04-25T10:22:42.331Z,18.07
2023-04-25T10:25:10.037Z,18.27
2023-04-25T10:27:37.111Z,17.85
2023-04-25T10:30:15.398Z,17.49
2023-04-25T10:32:51.466Z,17.60
2023-04-25T10:35:20.452Z,18.05
2023-04-25T10:38:13.551Z,17.58
2023-04-25T10:40:40.371Z,17.52
2023-04-25T10:43:31.783Z,17.47
2023-04-25T10:46:01.376Z,17.58
2023-04-25T10:48:32.516Z,17.48
2023-04-25T10:51:12.562Z,17.41
2023-04-25T10:53:39.092Z,17.71
2023-04-25T10:56:14.540Z,18.19
2023-04-25T10:58:45.640Z,18.16
2023-04-25T11:01:13.223Z,18.03
2023-04-25T11:03:44.444Z,18.12
2023-04-25T11:06:23.650Z,17.72
2023-04-25T11:08:52.405Z,17.46
2023-04-25T11:11:19.773Z,17.34
2023-04-25T11:13:50.873Z,17.60
2023-04-25T11:16:26.796Z,18.28
2023-04-25T11:18:54.391Z,18.35
2023-04-25T11:21:21.032Z,18.14
2023-04-25T11:23:47.528Z,18.11
2023-04-25T11:26:16.325Z,18.27
2023-04-25T11:28:46.489Z,18.18
2023-04-25T11:31:13.001Z,18.26
2023-04-25T11:33:41.672Z,18.46
2023-04-25T11:36:08.392Z,18.84
2023-04-25T11:38:35.338Z,19.09
2023-04-25T11:41:02.235Z,19.29
2023-04-25T11:43:29.292Z,19.04
2023-04-25T11:45:55.949Z,18.95
2023-04-25T11:48:26.292Z,18.52
2023-04-25T11:50:54.856Z,18.66
2023-04-25T11:53:21.429Z,18.69
2023-04-25T11:55:48.773Z,18.89
2023-04-25T11:58:15.390Z,19.05
2023-04-25T12:00:50.667Z,18.98
2023-04-25T12:03:32.342Z,19.07
2023-04-25T12:06:05.119Z,19.11
2023-04-25T12:08:31.724Z,18.92
2023-04-25T12:10:58.146Z,19.12
2023-04-25T12:13:26.727Z,19.23
2023-04-25T12:15:56.573Z,19.38
2023-04-25T12:18:26.403Z,19.42
2023-04-25T12:20:53.985Z,19.59
2023-04-25T12:23:29.887Z,19.39
2023-04-25T12:25:57.090Z,19.11
2023-04-25T12:28:25.648Z,19.09
2023-04-25T12:31:06.648Z,19.23
2023-04-25T12:33:38.102Z,19.29
2023-04-25T12:36:09.884Z,19.34
2023-04-25T12:38:44.116Z,19.34
2023-04-25T12:41:11.015Z,19.39
2023-04-25T12:43:37.447Z,19.44
2023-04-25T12:46:04.453Z,19.40
2023-04-25T12:48:31.061Z,19.32
2023-04-25T12:50:57.468Z,18.83
2023-04-25T12:53:25.344Z,18.44
2023-04-25T12:55:51.951Z,18.30
2023-04-25T12:58:19.901Z,18.26
2023-04-25T13:00:47.190Z,18.24
2023-04-25T13:03:13.975Z,18.17
2023-04-25T13:05:41.261Z,18.10
2023-04-25T13:08:07.701Z,18.09
2023-04-25T13:10:34.950Z,17.98
2023-04-25T13:13:02.177Z,18.05
2023-04-25T13:15:29.008Z,18.04
2023-04-25T13:17:55.452Z,17.97
2023-04-25T13:20:29.200Z,17.83
2023-04-25T13:22:56.151Z,17.72
2023-04-25T13:25:25.879Z,17.71
2023-04-25T13:27:52.420Z,17.80
2023-04-25T13:30:21.631Z,17.89
2023-04-25T13:32:48.157Z,17.91
2023-04-25T13:35:15.094Z,17.83
2023-04-25T13:37:41.623Z,17.62
2023-04-25T13:40:12.360Z,17.46
2023-04-25T13:42:39.877Z,17.38
2023-04-25T13:45:07.108Z,17.22
2023-04-25T13:47:34.317Z,16.74
2023-04-25T13:50:01.731Z,16.14
2023-04-25T13:52:28.238Z,15.68
2023-04-25T13:54:54.895Z,15.30
2023-04-25T13:57:21.452Z,14.96
2023-04-25T13:59:48.079Z,14.34
2023-04-25T14:02:14.792Z,14.10
2023-04-25T14:04:41.929Z,13.93
2023-04-25T14:07:08.486Z,13.71
2023-04-25T14:09:35.298Z,13.36
2023-04-25T14:12:03.047Z,13.14
2023-04-25T14:14:29.648Z,13.02
2023-04-25T14:16:56.230Z,12.86
2023-04-25T14:19:22.716Z,12.89
2023-04-25T14:21:49.304Z,13.03
2023-04-25T14:24:16.812Z,13.15
2023-04-25T14:26:46.464Z,13.30
2023-04-25T14:29:13.294Z,13.40
2023-04-25T14:31:41.351Z,13.67
2023-04-25T14:34:08.659Z,13.75
2023-04-25T14:36:37.357Z,14.14
2023-04-25T14:39:06.042Z,14.47
2023-04-25T14:41:32.821Z,14.82
2023-04-25T14:43:59.303Z,15.07
2023-04-25T14:46:26.486Z,15.19
2023-04-25T14:48:53.109Z,15.23
2023-04-25T14:51:19.579Z,15.34
2023-04-25T14:53:46.168Z,15.52
2023-04-25T14:56:13.411Z,15.80
2023-04-25T14:58:41.344Z,15.99
2023-04-25T15:01:08.145Z,16.18
2023-04-25T15:03:35.039Z,16.25
2023-04-25T15:06:01.793Z,16.39
2023-04-25T15:08:28.215Z,16.35
2023-04-25T15:10:54.725Z,16.37
2023-04-25T15:13:21.574Z,16.44
2023-04-25T15:15:52.096Z,16.54
2023-04-25T15:18:22.967Z,16.67
2023-04-25T15:20:49.668Z,16.77
2023-04-25T15:23:16.425Z,16.84
2023-04-25T15:25:43.137Z,16.89
2023-04-25T15:28:09.799Z,16.93
2023-04-25T15:30:36.370Z,16.99
2023-04-25T15:33:03.844Z,17.09
2023-04-25T15:35:30.426Z,17.13
2023-04-25T15:37:56.867Z,17.08
2023-04-25T15:40:23.377Z,16.99
2023-04-25T15:42:51.796Z,16.78
2023-04-25T15:45:19.888Z,16.65
2023-04-25T15:47:46.476Z,16.30
2023-04-25T15:50:14.986Z,16.34
2023-04-25T15:52:42.190Z,16.27
2023-04-25T15:55:09.706Z,15.83
2023-04-25T15:57:37.255Z,15.51
2023-04-25T16:00:17.484Z,15.31
2023-04-25T16:02:45.441Z,15.19
2023-04-25T16:05:14.449Z,14.75
2023-04-25T16:07:42.755Z,14.80
2023-04-25T16:10:11.248Z,14.92
2023-04-25T16:12:41.011Z,14.60
2023-04-25T16:15:08.296Z,14.56
2023-04-25T16:17:35.163Z,14.59
2023-04-25T16:20:10.140Z,14.41
2023-04-25T16:22:38.828Z,14.58
2023-04-25T16:25:06.193Z,14.42
2023-04-25T16:27:34.722Z,14.28
2023-04-25T16:30:02.069Z,14.13
2023-04-25T16:32:28.570Z,14.10
2023-04-25T16:34:56.401Z,14.05
2023-04-25T16:37:24.528Z,14.06
2023-04-25T16:39:51.171Z,14.16
2023-04-25T16:42:17.618Z,14.25
2023-04-25T16:44:44.362Z,14.20
2023-04-25T16:47:12.189Z,14.33
2023-04-25T16:49:41.038Z,14.42
2023-04-25T16:52:07.556Z,14.43
2023-04-25T16:54:33.961Z,14.29
2023-04-25T16:57:01.389Z,14.00
2023-04-25T16:59:27.883Z,13.85
2023-04-25T17:01:54.750Z,13.80
2023-04-25T17:04:21.471Z,13.80
2023-04-25T17:06:48.436Z,13.88
2023-04-25T17:09:15.278Z,13.91
2023-04-25T17:11:42.049Z,13.92
2023-04-25T17:14:08.600Z,13.81
2023-04-25T17:16:44.026Z,13.87
2023-04-25T17:19:10.525Z,13.88
2023-04-25T17:21:37.965Z,13.86
2023-04-25T17:24:09.563Z,13.88
2023-04-25T17:26:36.839Z,13.64
2023-04-25T17:29:04.213Z,13.60
2023-04-25T17:31:31.061Z,13.51
2023-04-25T17:33:57.674Z,13.49
2023-04-25T17:36:24.563Z,13.71
2023-04-25T17:38:51.267Z,13.80
2023-04-25T17:41:18.787Z,13.71
2023-04-25T17:43:45.671Z,13.67
2023-04-25T17:46:12.111Z,13.57
2023-04-25T17:48:38.556Z,13.55
2023-04-25T17:51:05.152Z,13.59
2023-04-25T17:53:31.600Z,13.45
2023-04-25T17:55:58.361Z,13.37
2023-04-25T17:58:25.051Z,13.29
2023-04-25T18:00:51.553Z,13.32
2023-04-25T18:03:18.194Z,13.31
2023-04-25T18:05:44.705Z,13.37
2023-04-25T18:08:11.280Z,13.28
2023-04-25T18:10:38.825Z,13.12
2023-04-25T18:13:05.378Z,13.12
2023-04-25T18:15:31.852Z,13.20
2023-04-25T18:17:58.483Z,12.92
2023-04-25T18:20:25.742Z,13.01
2023-04-25T18:22:52.191Z,13.14
2023-04-25T18:25:18.646Z,13.19
2023-04-25T18:27:45.982Z,13.24
2023-04-25T18:30:13.675Z,13.16
2023-04-25T18:32:40.269Z,13.23
2023-04-25T18:35:07.196Z,13.16
2023-04-25T18:37:33.746Z,12.99
2023-04-25T18:40:05.915Z,12.97
2023-04-25T18:42:33.246Z,13.11
2023-04-25T18:44:59.725Z,13.07
2023-04-25T18:47:26.220Z,13.07
2023-04-25T18:49:52.689Z,13.05
2023-04-25T18:52:19.601Z,12.96
2023-04-25T18:54:46.041Z,12.89
2023-04-25T18:57:14.970Z,12.86
2023-04-25T18:59:42.741Z,12.95
2023-04-25T19:02:09.387Z,12.95
2023-04-25T19:04:36.185Z,12.87
2023-04-25T19:07:03.620Z,12.76
2023-04-25T19:09:30.105Z,12.78
2023-04-25T19:11:57.439Z,12.81
2023-04-25T19:14:23.861Z,12.92
2023-04-25T19:16:50.365Z,12.97
2023-04-25T19:19:16.766Z,12.92
2023-04-25T19:21:43.182Z,12.86
2023-04-25T19:24:09.800Z,12.82
2023-04-25T19:26:36.354Z,12.66
2023-04-25T19:29:14.428Z,12.61
2023-04-25T19:31:44.001Z,12.54
2023-04-25T19:34:11.999Z,12.42
2023-04-25T19:36:39.604Z,12.37
2023-04-25T19:39:07.289Z,12.42
2023-04-25T19:41:36.320Z,12.45
2023-04-25T19:44:07.537Z,12.51
2023-04-25T19:46:34.565Z,12.39
2023-04-25T19:49:01.537Z,12.40
2023-04-25T19:51:28.653Z,12.37
2023-04-25T19:53:55.653Z,12.38
2023-04-25T19:56:22.790Z,12.48
2023-04-25T19:58:49.659Z,12.38
2023-04-25T20:01:17.256Z,12.33
2023-04-25T20:03:44.280Z,12.00
2023-04-25T20:06:11.422Z,11.76
2023-04-25T20:08:37.879Z,11.56
2023-04-25T20:11:04.340Z,11.44
2023-04-25T20:13:31.455Z,11.41
2023-04-25T20:16:00.038Z,11.29
2023-04-25T20:18:29.221Z,11.15
2023-04-25T20:20:55.742Z,11.19
2023-04-25T20:23:22.257Z,11.27
2023-04-25T20:25:48.950Z,11.25
2023-04-25T20:28:15.831Z,11.22
2023-04-25T20:30:42.334Z,11.27
2023-04-25T20:33:09.296Z,11.05
2023-04-25T20:35:36.829Z,10.88
2023-04-25T20:38:03.253Z,10.79
2023-04-25T20:40:29.802Z,10.78
2023-04-25T20:42:56.489Z,10.81
2023-04-25T20:45:24.313Z,10.74
2023-04-25T20:47:50.897Z,10.73
2023-04-25T20:50:17.514Z,10.67
2023-04-25T20:52:44.340Z,10.81
2023-04-25T20:55:11.862Z,10.76
2023-04-25T20:57:38.355Z,10.85
2023-04-25T21:00:16.647Z,10.94
2023-04-25T21:02:43.171Z,11.00
2023-04-25T21:05:10.777Z,11.03
2023-04-25T21:07:38.260Z,10.81
2023-04-25T21:10:05.240Z,10.66
2023-04-25T21:12:31.807Z,10.64
2023-04-25T21:15:00.337Z,10.63
2023-04-25T21:17:27.242Z,10.62
2023-04-25T21:19:53.900Z,10.61
2023-04-25T21:22:21.493Z,10.50
2023-04-25T21:24:50.473Z,10.44
2023-04-25T21:27:19.840Z,10.45
2023-04-25T21:29:46.329Z,10.59
2023-04-25T21:32:16.770Z,10.61
2023-04-25T21:34:43.611Z,10.64
2023-04-25T21:37:10.371Z,10.46
2023-04-25T21:39:36.797Z,10.37
2023-04-25T21:42:06.273Z,10.38
2023-04-25T21:44:32.975Z,10.40
2023-04-25T21:46:59.455Z,10.36
2023-04-25T21:49:29.327Z,10.32
2023-04-25T21:51:56.980Z,10.21
2023-04-25T21:54:23.471Z,10.09
2023-04-25T21:56:49.935Z,10.15
2023-04-25T21:59:16.356Z,10.16
2023-04-25T22:01:43.484Z,10.04
2023-04-25T22:04:10.127Z,10.06
2023-04-25T22:06:36.742Z,10.05
2023-04-25T22:09:04.729Z,10.11
2023-04-25T22:11:31.129Z,10.16
2023-04-25T22:13:57.558Z,10.16
2023-04-25T22:16:24.205Z,10.18
2023-04-25T22:18:52.115Z,10.15
2023-04-25T22:21:18.686Z,10.17
2023-04-25T22:23:45.099Z,10.02
2023-04-25T22:26:12.462Z,9.95
2023-04-25T22:28:39.744Z,9.94
2023-04-25T22:31:06.212Z,10.10
2023-04-25T22:33:33.370Z,10.31
2023-04-25T22:35:59.800Z,10.44
2023-04-25T22:38:26.410Z,10.48
2023-04-25T22:40:52.974Z,10.39
2023-04-25T22:43:19.722Z,10.44
2023-04-25T22:45:46.381Z,10.51
2023-04-25T22:48:13.376Z,10.47
2023-04-25T22:50:40.874Z,10.20
2023-04-25T22:53:09.146Z,10.06
2023-04-25T22:55:36.865Z,10.03
2023-04-25T22:58:04.340Z,9.96
2023-04-25T23:00:31.030Z,10.05
2023-04-25T23:02:58.072Z,10.21
2023-04-25T23:05:24.688Z,10.35
2023-04-25T23:07:51.392Z,10.45
2023-04-25T23:10:18.685Z,10.32
2023-04-25T23:12:45.361Z,10.30
2023-04-25T23:15:13.446Z,10.20
2023-04-25T23:17:40.539Z,10.01
2023-04-25T23:20:10.019Z,9.95
2023-04-25T23:22:36.420Z,9.97
2023-04-25T23:25:02.862Z,10.18
2023-04-25T23:27:29.318Z,10.13
2023-04-25T23:29:56.634Z,10.15
2023-04-25T23:32:23.266Z,10.17
2023-04-25T23:34:49.670Z,10.25
2023-04-25T23:37:16.105Z,10.25
2023-04-25T23:39:48.725Z,10.09
2023-04-25T23:42:15.163Z,9.93
2023-04-25T23:44:41.616Z,9.96
2023-04-25T23:47:08.162Z,10.05
2023-04-25T23:49:34.659Z,10.13
2023-04-25T23:52:01.142Z,10.20
2023-04-25T23:54:27.525Z,10.24
2023-04-25T23:56:54.008Z,10.10
2023-04-25T23:59:20.948Z,10.01
